sensor_id;sensor_type;location;lat;lon;timestamp;pressure;altitude;pressure_sealevel;temperature;humidity
64683;BME280;51107;47.652;19.016;2023-04-07T00:02:01;99650.22;;;2.85;79.85
64683;BME280;51107;47.652;19.016;2023-04-07T00:04:30;99653.50;;;2.87;79.95
64683;BME280;51107;47.652;19.016;2023-04-07T00:06:58;99651.84;;;2.86;79.77
64683;BME280;51107;47.652;19.016;2023-04-07T00:09:26;99645.06;;;2.72;80.29
64683;BME280;51107;47.652;19.016;2023-04-07T00:11:55;99649.50;;;2.70;80.36
64683;BME280;51107;47.652;19.016;2023-04-07T00:14:23;99640.22;;;2.81;80.72
64683;BME280;51107;47.652;19.016;2023-04-07T00:16:51;99644.47;;;2.82;80.66
64683;BME280;51107;47.652;19.016;2023-04-07T00:19:20;99646.09;;;2.83;79.54
64683;BME280;51107;47.652;19.016;2023-04-07T00:21:48;99649.72;;;2.80;80.70
64683;BME280;51107;47.652;19.016;2023-04-07T00:24:17;99648.16;;;2.78;80.82
64683;BME280;51107;47.652;19.016;2023-04-07T00:27:02;99640.44;;;2.78;79.40
64683;BME280;51107;47.652;19.016;2023-04-07T00:29:30;99642.81;;;2.81;78.96
64683;BME280;51107;47.652;19.016;2023-04-07T00:31:58;99631.81;;;2.79;79.14
64683;BME280;51107;47.652;19.016;2023-04-07T00:34:27;99636.09;;;2.78;79.11
64683;BME280;51107;47.652;19.016;2023-04-07T00:36:55;99638.91;;;2.75;80.04
64683;BME280;51107;47.652;19.016;2023-04-07T00:39:23;99633.13;;;2.84;80.07
64683;BME280;51107;47.652;19.016;2023-04-07T00:41:55;99619.94;;;2.89;79.36
64683;BME280;51107;47.652;19.016;2023-04-07T00:44:23;99630.06;;;2.92;79.75
64683;BME280;51107;47.652;19.016;2023-04-07T00:46:52;99620.16;;;2.86;80.18
64683;BME280;51107;47.652;19.016;2023-04-07T00:49:21;99623.03;;;2.94;80.11
64683;BME280;51107;47.652;19.016;2023-04-07T00:51:49;99634.25;;;2.93;78.98
64683;BME280;51107;47.652;19.016;2023-04-07T00:54:18;99626.13;;;2.99;78.07
64683;BME280;51107;47.652;19.016;2023-04-07T00:56:46;99624.69;;;2.95;77.84
64683;BME280;51107;47.652;19.016;2023-04-07T00:59:15;99628.19;;;2.94;78.33
64683;BME280;51107;47.652;19.016;2023-04-07T01:01:47;99616.69;;;2.87;77.98
64683;BME280;51107;47.652;19.016;2023-04-07T01:04:30;99623.25;;;2.91;77.88
64683;BME280;51107;47.652;19.016;2023-04-07T01:07:10;99616.25;;;2.93;77.52
64683;BME280;51107;47.652;19.016;2023-04-07T01:09:49;99625.44;;;2.71;79.21
64683;BME280;51107;47.652;19.016;2023-04-07T01:12:41;99624.69;;;2.82;80.04
64683;BME280;51107;47.652;19.016;2023-04-07T01:15:13;99617.88;;;2.94;77.82
64683;BME280;51107;47.652;19.016;2023-04-07T01:17:47;99614.19;;;2.98;77.54
64683;BME280;51107;47.652;19.016;2023-04-07T01:20:20;99607.38;;;2.97;78.19
64683;BME280;51107;47.652;19.016;2023-04-07T01:22:55;99597.53;;;2.91;79.09
64683;BME280;51107;47.652;19.016;2023-04-07T01:30:31;99608.66;;;2.79;78.66
64683;BME280;51107;47.652;19.016;2023-04-07T01:33:00;99605.66;;;2.85;79.63
64683;BME280;51107;47.652;19.016;2023-04-07T01:35:31;99599.88;;;2.94;78.27
64683;BME280;51107;47.652;19.016;2023-04-07T01:38:02;99598.56;;;2.88;78.86
64683;BME280;51107;47.652;19.016;2023-04-07T01:40:33;99605.25;;;2.91;79.32
64683;BME280;51107;47.652;19.016;2023-04-07T01:43:03;99602.03;;;2.87;78.29
64683;BME280;51107;47.652;19.016;2023-04-07T01:45:34;99598.22;;;2.93;79.62
64683;BME280;51107;47.652;19.016;2023-04-07T01:48:05;99593.81;;;2.95;77.73
64683;BME280;51107;47.652;19.016;2023-04-07T01:50:35;99596.91;;;3.00;78.13
64683;BME280;51107;47.652;19.016;2023-04-07T01:53:06;99604.41;;;2.91;78.94
64683;BME280;51107;47.652;19.016;2023-04-07T01:55:35;99589.69;;;2.93;77.41
64683;BME280;51107;47.652;19.016;2023-04-07T01:58:05;99601.16;;;2.76;78.36
64683;BME280;51107;47.652;19.016;2023-04-07T02:00:34;99601.62;;;2.94;77.63
64683;BME280;51107;47.652;19.016;2023-04-07T02:03:28;99601.62;;;2.81;78.59
64683;BME280;51107;47.652;19.016;2023-04-07T02:06:04;99590.03;;;2.88;79.08
64683;BME280;51107;47.652;19.016;2023-04-07T02:08:35;99591.16;;;2.84;78.69
64683;BME280;51107;47.652;19.016;2023-04-07T02:11:06;99587.94;;;2.93;79.28
64683;BME280;51107;47.652;19.016;2023-04-07T02:13:36;99593.62;;;2.85;78.70
64683;BME280;51107;47.652;19.016;2023-04-07T02:16:09;99604.31;;;2.79;78.50
64683;BME280;51107;47.652;19.016;2023-04-07T02:18:38;99586.44;;;2.78;79.34
64683;BME280;51107;47.652;19.016;2023-04-07T02:21:08;99591.56;;;2.78;79.17
64683;BME280;51107;47.652;19.016;2023-04-07T02:23:39;99583.13;;;2.88;79.04
64683;BME280;51107;47.652;19.016;2023-04-07T02:26:07;99580.03;;;2.83;79.64
64683;BME280;51107;47.652;19.016;2023-04-07T02:28:36;99577.56;;;2.82;80.84
64683;BME280;51107;47.652;19.016;2023-04-07T02:31:04;99587.63;;;2.85;80.63
64683;BME280;51107;47.652;19.016;2023-04-07T02:33:32;99582.31;;;2.75;81.26
64683;BME280;51107;47.652;19.016;2023-04-07T02:36:01;99592.09;;;2.83;81.76
64683;BME280;51107;47.652;19.016;2023-04-07T02:38:30;99587.03;;;2.81;81.67
64683;BME280;51107;47.652;19.016;2023-04-07T02:40:58;99586.94;;;2.83;82.36
64683;BME280;51107;47.652;19.016;2023-04-07T02:43:29;99598.78;;;2.85;81.82
64683;BME280;51107;47.652;19.016;2023-04-07T02:45:58;99584.78;;;2.77;81.55
64683;BME280;51107;47.652;19.016;2023-04-07T02:48:26;99603.28;;;2.82;82.74
64683;BME280;51107;47.652;19.016;2023-04-07T02:50:55;99598.88;;;2.84;82.63
64683;BME280;51107;47.652;19.016;2023-04-07T02:53:23;99588.38;;;2.87;81.02
64683;BME280;51107;47.652;19.016;2023-04-07T02:55:52;99589.72;;;2.80;81.91
64683;BME280;51107;47.652;19.016;2023-04-07T02:58:20;99591.47;;;2.66;82.31
64683;BME280;51107;47.652;19.016;2023-04-07T03:00:49;99594.25;;;2.76;82.86
64683;BME280;51107;47.652;19.016;2023-04-07T03:03:18;99587.56;;;2.74;83.00
64683;BME280;51107;47.652;19.016;2023-04-07T03:05:48;99584.78;;;2.64;83.33
64683;BME280;51107;47.652;19.016;2023-04-07T03:08:17;99584.28;;;2.71;82.90
64683;BME280;51107;47.652;19.016;2023-04-07T03:10:46;99577.19;;;2.62;83.61
64683;BME280;51107;47.652;19.016;2023-04-07T03:13:16;99579.25;;;2.57;84.22
64683;BME280;51107;47.652;19.016;2023-04-07T03:15:46;99586.12;;;2.69;84.16
64683;BME280;51107;47.652;19.016;2023-04-07T03:18:16;99588.81;;;2.68;83.69
64683;BME280;51107;47.652;19.016;2023-04-07T03:20:49;99591.28;;;2.69;84.18
64683;BME280;51107;47.652;19.016;2023-04-07T03:23:20;99593.62;;;2.72;84.07
64683;BME280;51107;47.652;19.016;2023-04-07T03:25:48;99587.22;;;2.78;83.65
64683;BME280;51107;47.652;19.016;2023-04-07T03:28:16;99593.03;;;2.69;84.19
64683;BME280;51107;47.652;19.016;2023-04-07T03:30:45;99592.62;;;2.62;83.99
64683;BME280;51107;47.652;19.016;2023-04-07T03:33:14;99590.66;;;2.66;85.61
64683;BME280;51107;47.652;19.016;2023-04-07T03:35:42;99583.34;;;2.72;84.05
64683;BME280;51107;47.652;19.016;2023-04-07T03:38:16;99589.50;;;2.70;84.47
64683;BME280;51107;47.652;19.016;2023-04-07T03:40:45;99591.06;;;2.72;85.05
64683;BME280;51107;47.652;19.016;2023-04-07T03:43:14;99587.66;;;2.72;84.77
64683;BME280;51107;47.652;19.016;2023-04-07T03:45:45;99595.38;;;2.72;84.72
64683;BME280;51107;47.652;19.016;2023-04-07T03:48:15;99600.09;;;2.78;84.59
64683;BME280;51107;47.652;19.016;2023-04-07T03:50:44;99590.88;;;2.76;84.54
64683;BME280;51107;47.652;19.016;2023-04-07T03:53:14;99591.78;;;2.75;85.19
64683;BME280;51107;47.652;19.016;2023-04-07T03:55:44;99598.78;;;2.72;84.84
64683;BME280;51107;47.652;19.016;2023-04-07T03:58:13;99598.25;;;2.80;84.26
64683;BME280;51107;47.652;19.016;2023-04-07T04:00:42;99586.72;;;2.86;83.95
64683;BME280;51107;47.652;19.016;2023-04-07T04:03:11;99607.22;;;2.75;83.78
64683;BME280;51107;47.652;19.016;2023-04-07T04:05:40;99608.75;;;2.64;84.65
64683;BME280;51107;47.652;19.016;2023-04-07T04:08:10;99595.50;;;2.70;85.29
64683;BME280;51107;47.652;19.016;2023-04-07T04:10:39;99601.84;;;2.78;85.53
64683;BME280;51107;47.652;19.016;2023-04-07T04:13:09;99607.75;;;2.80;85.16
64683;BME280;51107;47.652;19.016;2023-04-07T04:15:37;99614.22;;;2.85;83.98
64683;BME280;51107;47.652;19.016;2023-04-07T04:18:08;99612.13;;;2.91;84.11
64683;BME280;51107;47.652;19.016;2023-04-07T04:20:36;99615.53;;;2.91;83.63
64683;BME280;51107;47.652;19.016;2023-04-07T04:23:05;99622.72;;;2.99;83.65
64683;BME280;51107;47.652;19.016;2023-04-07T04:25:34;99622.72;;;2.99;84.96
64683;BME280;51107;47.652;19.016;2023-04-07T04:28:04;99619.63;;;3.06;84.08
64683;BME280;51107;47.652;19.016;2023-04-07T04:30:33;99622.41;;;3.03;84.27
64683;BME280;51107;47.652;19.016;2023-04-07T04:33:01;99633.13;;;2.97;84.39
64683;BME280;51107;47.652;19.016;2023-04-07T04:35:31;99622.81;;;2.97;81.98
64683;BME280;51107;47.652;19.016;2023-04-07T04:38:00;99629.22;;;2.92;82.22
64683;BME280;51107;47.652;19.016;2023-04-07T04:40:29;99633.34;;;2.94;82.46
64683;BME280;51107;47.652;19.016;2023-04-07T04:42:58;99637.00;;;3.03;81.99
64683;BME280;51107;47.652;19.016;2023-04-07T04:45:27;99635.28;;;3.03;81.36
64683;BME280;51107;47.652;19.016;2023-04-07T04:47:55;99633.75;;;3.01;83.49
64683;BME280;51107;47.652;19.016;2023-04-07T04:50:23;99640.94;;;2.96;83.20
64683;BME280;51107;47.652;19.016;2023-04-07T04:52:52;99631.78;;;2.92;83.71
64683;BME280;51107;47.652;19.016;2023-04-07T04:55:21;99627.66;;;2.89;83.45
64683;BME280;51107;47.652;19.016;2023-04-07T04:57:51;99628.63;;;2.88;83.97
64683;BME280;51107;47.652;19.016;2023-04-07T05:00:20;99636.94;;;2.92;84.04
64683;BME280;51107;47.652;19.016;2023-04-07T05:02:49;99637.34;;;2.98;83.80
64683;BME280;51107;47.652;19.016;2023-04-07T05:05:18;99640.25;;;2.94;83.73
64683;BME280;51107;47.652;19.016;2023-04-07T05:07:47;99652.25;;;2.93;84.17
64683;BME280;51107;47.652;19.016;2023-04-07T05:10:17;99654.94;;;3.04;83.46
64683;BME280;51107;47.652;19.016;2023-04-07T05:12:46;99649.87;;;3.03;83.38
64683;BME280;51107;47.652;19.016;2023-04-07T05:15:14;99643.59;;;3.07;82.72
64683;BME280;51107;47.652;19.016;2023-04-07T05:17:43;99644.84;;;3.14;83.00
64683;BME280;51107;47.652;19.016;2023-04-07T05:20:12;99661.09;;;3.15;82.39
64683;BME280;51107;47.652;19.016;2023-04-07T05:22:42;99662.31;;;3.22;80.96
64683;BME280;51107;47.652;19.016;2023-04-07T05:25:11;99664.78;;;3.23;81.17
64683;BME280;51107;47.652;19.016;2023-04-07T05:27:40;99665.44;;;3.14;81.64
64683;BME280;51107;47.652;19.016;2023-04-07T05:30:09;99668.59;;;3.31;82.34
64683;BME280;51107;47.652;19.016;2023-04-07T05:32:37;99664.38;;;3.30;81.63
64683;BME280;51107;47.652;19.016;2023-04-07T05:35:06;99662.38;;;3.33;81.31
64683;BME280;51107;47.652;19.016;2023-04-07T05:37:35;99667.66;;;3.32;79.85
64683;BME280;51107;47.652;19.016;2023-04-07T05:40:05;99669.25;;;3.46;80.23
64683;BME280;51107;47.652;19.016;2023-04-07T05:42:34;99671.91;;;3.57;80.60
64683;BME280;51107;47.652;19.016;2023-04-07T05:45:03;99665.44;;;3.51;79.82
64683;BME280;51107;47.652;19.016;2023-04-07T05:47:32;99663.91;;;3.49;79.72
64683;BME280;51107;47.652;19.016;2023-04-07T05:50:01;99669.47;;;3.43;80.45
64683;BME280;51107;47.652;19.016;2023-04-07T05:52:32;99660.88;;;3.55;80.45
64683;BME280;51107;47.652;19.016;2023-04-07T05:55:01;99679.19;;;3.39;78.72
64683;BME280;51107;47.652;19.016;2023-04-07T05:57:30;99676.69;;;3.37;79.51
64683;BME280;51107;47.652;19.016;2023-04-07T06:00:01;99678.53;;;3.48;79.81
64683;BME280;51107;47.652;19.016;2023-04-07T06:02:32;99664.59;;;3.64;79.45
64683;BME280;51107;47.652;19.016;2023-04-07T06:05:01;99672.31;;;3.64;80.02
64683;BME280;51107;47.652;19.016;2023-04-07T06:07:31;99675.59;;;3.66;79.17
64683;BME280;51107;47.652;19.016;2023-04-07T06:09:59;99676.91;;;3.71;77.92
64683;BME280;51107;47.652;19.016;2023-04-07T06:12:29;99670.47;;;3.90;80.12
64683;BME280;51107;47.652;19.016;2023-04-07T06:14:57;99663.44;;;3.68;76.75
64683;BME280;51107;47.652;19.016;2023-04-07T06:17:25;99677.12;;;3.68;76.52
64683;BME280;51107;47.652;19.016;2023-04-07T06:19:55;99673.41;;;3.72;77.31
64683;BME280;51107;47.652;19.016;2023-04-07T06:22:24;99677.56;;;3.62;76.83
64683;BME280;51107;47.652;19.016;2023-04-07T06:24:52;99678.28;;;3.64;76.91
64683;BME280;51107;47.652;19.016;2023-04-07T06:27:21;99677.91;;;3.82;77.14
64683;BME280;51107;47.652;19.016;2023-04-07T06:29:50;99685.34;;;3.98;77.04
64683;BME280;51107;47.652;19.016;2023-04-07T06:32:19;99678.31;;;3.88;76.71
64683;BME280;51107;47.652;19.016;2023-04-07T06:34:48;99679.75;;;3.80;76.17
64683;BME280;51107;47.652;19.016;2023-04-07T06:37:17;99690.63;;;3.72;75.08
64683;BME280;51107;47.652;19.016;2023-04-07T06:39:45;99692.22;;;3.86;75.28
64683;BME280;51107;47.652;19.016;2023-04-07T06:42:14;99694.94;;;3.71;77.80
64683;BME280;51107;47.652;19.016;2023-04-07T06:44:48;99690.69;;;3.83;78.95
64683;BME280;51107;47.652;19.016;2023-04-07T06:47:17;99690.84;;;3.93;78.18
64683;BME280;51107;47.652;19.016;2023-04-07T06:49:46;99698.00;;;4.01;81.01
64683;BME280;51107;47.652;19.016;2023-04-07T06:52:14;99689.94;;;3.94;80.85
64683;BME280;51107;47.652;19.016;2023-04-07T06:54:43;99695.00;;;3.83;82.93
64683;BME280;51107;47.652;19.016;2023-04-07T06:57:11;99706.03;;;3.85;82.19
64683;BME280;51107;47.652;19.016;2023-04-07T06:59:39;99707.59;;;3.74;83.73
64683;BME280;51107;47.652;19.016;2023-04-07T07:02:08;99706.44;;;3.42;84.16
64683;BME280;51107;47.652;19.016;2023-04-07T07:04:37;99718.69;;;3.64;86.15
64683;BME280;51107;47.652;19.016;2023-04-07T07:07:05;99718.84;;;3.36;87.34
64683;BME280;51107;47.652;19.016;2023-04-07T07:09:34;99725.91;;;3.59;88.78
64683;BME280;51107;47.652;19.016;2023-04-07T07:12:03;99726.50;;;3.62;91.06
64683;BME280;51107;47.652;19.016;2023-04-07T07:14:31;99731.34;;;3.54;93.61
64683;BME280;51107;47.652;19.016;2023-04-07T07:17:00;99738.38;;;3.52;94.49
64683;BME280;51107;47.652;19.016;2023-04-07T07:19:28;99730.47;;;3.42;96.17
64683;BME280;51107;47.652;19.016;2023-04-07T07:21:56;99738.62;;;2.84;95.97
64683;BME280;51107;47.652;19.016;2023-04-07T07:24:25;99755.34;;;2.64;97.11
64683;BME280;51107;47.652;19.016;2023-04-07T07:26:53;99746.56;;;2.94;99.82
64683;BME280;51107;47.652;19.016;2023-04-07T07:29:22;99749.84;;;2.83;98.49
64683;BME280;51107;47.652;19.016;2023-04-07T07:31:50;99748.28;;;2.81;100.00
64683;BME280;51107;47.652;19.016;2023-04-07T07:34:21;99748.09;;;2.97;100.00
64683;BME280;51107;47.652;19.016;2023-04-07T07:36:49;99750.66;;;3.10;98.46
64683;BME280;51107;47.652;19.016;2023-04-07T07:39:18;99755.41;;;3.16;97.89
64683;BME280;51107;47.652;19.016;2023-04-07T07:41:46;99756.31;;;3.28;100.00
64683;BME280;51107;47.652;19.016;2023-04-07T07:44:15;99761.88;;;3.34;99.62
64683;BME280;51107;47.652;19.016;2023-04-07T07:46:44;99762.19;;;3.43;98.38
64683;BME280;51107;47.652;19.016;2023-04-07T07:49:13;99751.47;;;3.49;98.35
64683;BME280;51107;47.652;19.016;2023-04-07T07:51:42;99757.56;;;3.22;96.68
64683;BME280;51107;47.652;19.016;2023-04-07T07:54:10;99771.78;;;3.02;97.03
64683;BME280;51107;47.652;19.016;2023-04-07T07:56:39;99769.72;;;2.94;99.42
64683;BME280;51107;47.652;19.016;2023-04-07T07:59:07;99779.69;;;2.99;100.00
64683;BME280;51107;47.652;19.016;2023-04-07T08:01:36;99776.19;;;2.87;100.00
64683;BME280;51107;47.652;19.016;2023-04-07T08:04:05;99765.78;;;2.76;100.00
64683;BME280;51107;47.652;19.016;2023-04-07T08:06:33;99788.63;;;2.80;100.00
64683;BME280;51107;47.652;19.016;2023-04-07T08:09:02;99779.50;;;3.15;100.00
64683;BME280;51107;47.652;19.016;2023-04-07T08:11:31;99783.12;;;3.25;100.00
64683;BME280;51107;47.652;19.016;2023-04-07T08:13:59;99775.50;;;3.36;100.00
64683;BME280;51107;47.652;19.016;2023-04-07T08:16:27;99780.44;;;3.39;100.00
64683;BME280;51107;47.652;19.016;2023-04-07T08:18:56;99785.97;;;3.33;100.00
64683;BME280;51107;47.652;19.016;2023-04-07T08:21:24;99785.69;;;3.38;100.00
64683;BME280;51107;47.652;19.016;2023-04-07T08:23:54;99785.06;;;3.47;100.00
64683;BME280;51107;47.652;19.016;2023-04-07T08:26:23;99794.31;;;3.63;100.00
64683;BME280;51107;47.652;19.016;2023-04-07T08:28:51;99789.06;;;3.64;100.00
64683;BME280;51107;47.652;19.016;2023-04-07T08:31:20;99794.41;;;3.48;100.00
64683;BME280;51107;47.652;19.016;2023-04-07T08:33:49;99793.28;;;3.52;100.00
64683;BME280;51107;47.652;19.016;2023-04-07T08:36:21;99789.47;;;3.58;100.00
64683;BME280;51107;47.652;19.016;2023-04-07T08:38:50;99793.69;;;3.59;100.00
64683;BME280;51107;47.652;19.016;2023-04-07T08:41:23;99790.81;;;3.64;100.00
64683;BME280;51107;47.652;19.016;2023-04-07T08:43:56;99797.41;;;3.55;98.47
64683;BME280;51107;47.652;19.016;2023-04-07T08:46:25;99784.81;;;3.76;100.00
64683;BME280;51107;47.652;19.016;2023-04-07T08:48:55;99792.34;;;3.66;100.00
64683;BME280;51107;47.652;19.016;2023-04-07T08:51:29;99795.53;;;3.70;100.00
64683;BME280;51107;47.652;19.016;2023-04-07T08:54:11;99784.50;;;3.81;100.00
64683;BME280;51107;47.652;19.016;2023-04-07T08:56:41;99792.75;;;3.73;99.31
64683;BME280;51107;47.652;19.016;2023-04-07T08:59:12;99794.28;;;3.88;100.00
64683;BME280;51107;47.652;19.016;2023-04-07T09:01:40;99791.59;;;3.90;99.95
64683;BME280;51107;47.652;19.016;2023-04-07T09:04:09;99796.00;;;3.88;99.15
64683;BME280;51107;47.652;19.016;2023-04-07T09:06:37;99792.84;;;4.08;99.09
64683;BME280;51107;47.652;19.016;2023-04-07T09:09:06;99802.03;;;4.13;99.25
64683;BME280;51107;47.652;19.016;2023-04-07T09:11:37;99789.28;;;3.98;96.38
64683;BME280;51107;47.652;19.016;2023-04-07T09:14:06;99790.06;;;4.12;98.78
64683;BME280;51107;47.652;19.016;2023-04-07T09:16:35;99793.38;;;4.14;96.05
64683;BME280;51107;47.652;19.016;2023-04-07T09:19:03;99793.38;;;4.14;96.34
64683;BME280;51107;47.652;19.016;2023-04-07T09:24:27;99794.34;;;4.24;98.68
64683;BME280;51107;47.652;19.016;2023-04-07T09:27:11;99786.47;;;4.38;98.47
64683;BME280;51107;47.652;19.016;2023-04-07T09:29:46;99789.22;;;4.59;100.00
64683;BME280;51107;47.652;19.016;2023-04-07T09:32:34;99788.31;;;4.61;99.53
64683;BME280;51107;47.652;19.016;2023-04-07T09:35:04;99794.25;;;4.50;94.90
64683;BME280;51107;47.652;19.016;2023-04-07T09:37:32;99789.75;;;4.76;97.65
64683;BME280;51107;47.652;19.016;2023-04-07T09:40:01;99792.09;;;4.79;94.78
64683;BME280;51107;47.652;19.016;2023-04-07T09:42:31;99783.12;;;4.96;95.81
64683;BME280;51107;47.652;19.016;2023-04-07T09:45:01;99796.03;;;4.96;94.97
64683;BME280;51107;47.652;19.016;2023-04-07T09:47:31;99801.38;;;4.82;93.98
64683;BME280;51107;47.652;19.016;2023-04-07T09:50:01;99788.88;;;4.64;94.54
64683;BME280;51107;47.652;19.016;2023-04-07T09:52:54;99791.28;;;4.79;93.71
64683;BME280;51107;47.652;19.016;2023-04-07T09:55:23;99798.38;;;4.88;95.25
64683;BME280;51107;47.652;19.016;2023-04-07T09:57:52;99794.97;;;4.52;92.96
64683;BME280;51107;47.652;19.016;2023-04-07T10:00:23;99803.84;;;4.83;94.44
64683;BME280;51107;47.652;19.016;2023-04-07T10:02:52;99803.72;;;4.85;94.45
64683;BME280;51107;47.652;19.016;2023-04-07T10:05:21;99796.88;;;4.72;90.73
64683;BME280;51107;47.652;19.016;2023-04-07T10:07:49;99796.34;;;4.80;91.19
64683;BME280;51107;47.652;19.016;2023-04-07T10:10:19;99798.78;;;4.70;89.87
64683;BME280;51107;47.652;19.016;2023-04-07T10:12:48;99797.34;;;4.66;91.04
64683;BME280;51107;47.652;19.016;2023-04-07T10:15:17;99803.44;;;4.65;90.33
64683;BME280;51107;47.652;19.016;2023-04-07T10:17:46;99794.09;;;4.75;92.27
64683;BME280;51107;47.652;19.016;2023-04-07T10:20:18;99801.41;;;4.93;90.74
64683;BME280;51107;47.652;19.016;2023-04-07T10:22:50;99796.41;;;5.03;92.53
64683;BME280;51107;47.652;19.016;2023-04-07T10:25:23;99799.41;;;4.85;91.41
64683;BME280;51107;47.652;19.016;2023-04-07T10:27:57;99804.69;;;4.84;90.52
64683;BME280;51107;47.652;19.016;2023-04-07T10:30:30;99802.81;;;4.86;91.93
64683;BME280;51107;47.652;19.016;2023-04-07T10:33:00;99796.56;;;4.77;89.11
64683;BME280;51107;47.652;19.016;2023-04-07T10:36:07;99803.72;;;4.85;91.20
64683;BME280;51107;47.652;19.016;2023-04-07T10:38:35;99811.16;;;4.89;90.65
64683;BME280;51107;47.652;19.016;2023-04-07T10:41:38;99799.78;;;4.92;91.55
64683;BME280;51107;47.652;19.016;2023-04-07T10:44:09;99804.03;;;5.04;90.37
64683;BME280;51107;47.652;19.016;2023-04-07T10:49:28;99805.56;;;5.07;89.85
64683;BME280;51107;47.652;19.016;2023-04-07T10:54:42;99808.22;;;4.94;87.49
64683;BME280;51107;47.652;19.016;2023-04-07T10:57:14;99801.06;;;4.86;86.90
64683;BME280;51107;47.652;19.016;2023-04-07T11:02:38;99811.03;;;4.91;86.89
64683;BME280;51107;47.652;19.016;2023-04-07T11:05:19;99805.22;;;5.00;87.35
64683;BME280;51107;47.652;19.016;2023-04-07T11:07:50;99812.16;;;5.11;88.08
64683;BME280;51107;47.652;19.016;2023-04-07T11:10:19;99805.22;;;5.23;89.16
64683;BME280;51107;47.652;19.016;2023-04-07T11:13:02;99812.78;;;5.37;89.31
64683;BME280;51107;47.652;19.016;2023-04-07T11:15:34;99813.97;;;5.33;87.81
64683;BME280;51107;47.652;19.016;2023-04-07T11:18:12;99810.06;;;5.27;87.24
64683;BME280;51107;47.652;19.016;2023-04-07T11:23:14;99817.91;;;5.26;87.23
64683;BME280;51107;47.652;19.016;2023-04-07T11:25:46;99824.75;;;5.38;89.04
64683;BME280;51107;47.652;19.016;2023-04-07T11:28:14;99808.31;;;5.51;88.51
64683;BME280;51107;47.652;19.016;2023-04-07T11:30:52;99817.94;;;5.49;87.41
64683;BME280;51107;47.652;19.016;2023-04-07T11:33:23;99815.38;;;5.49;87.45
64683;BME280;51107;47.652;19.016;2023-04-07T11:35:58;99821.09;;;5.41;86.43
64683;BME280;51107;47.652;19.016;2023-04-07T11:38:30;99812.06;;;5.35;87.06
64683;BME280;51107;47.652;19.016;2023-04-07T11:41:13;99819.97;;;4.98;86.01
64683;BME280;51107;47.652;19.016;2023-04-07T11:43:41;99816.16;;;5.26;89.19
64683;BME280;51107;47.652;19.016;2023-04-07T11:46:15;99815.69;;;5.33;87.14
64683;BME280;51107;47.652;19.016;2023-04-07T11:48:44;99809.00;;;5.30;86.13
64683;BME280;51107;47.652;19.016;2023-04-07T11:51:19;99810.87;;;5.51;89.12
64683;BME280;51107;47.652;19.016;2023-04-07T11:53:53;99822.16;;;5.38;85.86
64683;BME280;51107;47.652;19.016;2023-04-07T11:56:22;99808.66;;;5.35;83.97
64683;BME280;51107;47.652;19.016;2023-04-07T11:58:52;99817.91;;;5.15;85.40
64683;BME280;51107;47.652;19.016;2023-04-07T12:01:21;99817.56;;;5.19;86.84
64683;BME280;51107;47.652;19.016;2023-04-07T12:04:00;99819.56;;;5.27;86.74
64683;BME280;51107;47.652;19.016;2023-04-07T12:06:32;99814.16;;;5.30;84.51
64683;BME280;51107;47.652;19.016;2023-04-07T12:09:06;99815.94;;;5.41;84.52
64683;BME280;51107;47.652;19.016;2023-04-07T12:11:35;99812.66;;;5.50;86.56
64683;BME280;51107;47.652;19.016;2023-04-07T12:14:04;99812.06;;;5.35;84.29
64683;BME280;51107;47.652;19.016;2023-04-07T12:16:37;99808.56;;;5.36;84.50
64683;BME280;51107;47.652;19.016;2023-04-07T12:19:06;99805.28;;;5.46;85.36
64683;BME280;51107;47.652;19.016;2023-04-07T12:21:34;99797.28;;;5.49;83.40
64683;BME280;51107;47.652;19.016;2023-04-07T12:24:02;99808.78;;;5.56;84.15
64683;BME280;51107;47.652;19.016;2023-04-07T12:26:31;99816.41;;;5.57;85.22
64683;BME280;51107;47.652;19.016;2023-04-07T12:28:59;99814.44;;;5.72;85.74
64683;BME280;51107;47.652;19.016;2023-04-07T12:31:33;99812.22;;;5.68;83.49
64683;BME280;51107;47.652;19.016;2023-04-07T12:34:02;99803.25;;;5.49;81.78
64683;BME280;51107;47.652;19.016;2023-04-07T12:36:30;99803.97;;;5.51;81.67
64683;BME280;51107;47.652;19.016;2023-04-07T12:38:58;99800.56;;;5.51;82.86
64683;BME280;51107;47.652;19.016;2023-04-07T12:41:27;99798.69;;;5.53;82.14
64683;BME280;51107;47.652;19.016;2023-04-07T12:43:55;99805.84;;;5.60;83.67
64683;BME280;51107;47.652;19.016;2023-04-07T12:46:23;99795.37;;;5.51;81.97
64683;BME280;51107;47.652;19.016;2023-04-07T12:48:52;99806.09;;;5.57;83.28
64683;BME280;51107;47.652;19.016;2023-04-07T12:51:20;99807.72;;;5.58;83.44
64683;BME280;51107;47.652;19.016;2023-04-07T12:53:49;99815.72;;;5.67;82.86
64683;BME280;51107;47.652;19.016;2023-04-07T12:56:17;99812.53;;;5.52;82.03
64683;BME280;51107;47.652;19.016;2023-04-07T12:58:46;99819.38;;;5.41;82.59
64683;BME280;51107;47.652;19.016;2023-04-07T13:01:14;99812.78;;;5.49;84.30
64683;BME280;51107;47.652;19.016;2023-04-07T13:03:43;99815.81;;;5.42;83.39
64683;BME280;51107;47.652;19.016;2023-04-07T13:06:12;99811.37;;;5.44;83.79
64683;BME280;51107;47.652;19.016;2023-04-07T13:08:41;99817.59;;;5.53;82.76
64683;BME280;51107;47.652;19.016;2023-04-07T13:11:09;99817.72;;;5.63;85.09
64683;BME280;51107;47.652;19.016;2023-04-07T13:13:37;99818.44;;;5.65;85.08
64683;BME280;51107;47.652;19.016;2023-04-07T13:16:07;99821.69;;;5.67;84.18
64683;BME280;51107;47.652;19.016;2023-04-07T13:18:35;99819.00;;;5.69;84.33
64683;BME280;51107;47.652;19.016;2023-04-07T13:21:04;99823.59;;;5.65;83.71
64683;BME280;51107;47.652;19.016;2023-04-07T13:23:53;99817.59;;;5.53;82.38
64683;BME280;51107;47.652;19.016;2023-04-07T13:26:21;99817.13;;;5.48;82.72
64683;BME280;51107;47.652;19.016;2023-04-07T13:28:49;99823.44;;;5.44;83.29
64683;BME280;51107;47.652;19.016;2023-04-07T13:31:18;99812.91;;;5.47;83.56
64683;BME280;51107;47.652;19.016;2023-04-07T13:33:48;99810.69;;;5.54;85.25
64683;BME280;51107;47.652;19.016;2023-04-07T13:36:18;99815.59;;;5.57;83.47